Tel Aviv, Israel

3:25 PM IDT on September 27, 2016 (GMT +0300)
Ben-Shemen | | Change Station

Elev 197 ft 31.95 °N, 34.92 °E | Updated 1 minute ago

Partly Cloudy
Partly Cloudy
87.3 °F
Feels Like 92 °F
N
3.8
Wind Variable Wind from West
Gusts 12.1 mph

Today
High -- | Low -- °F
--% Chance of Precip.
Yesterday
High -- | Low -- °F
Precip. -- in
Pressure 29.95 in
Visibility 6.2 miles
Clouds Few 5000 ft
Heat Index 92 °F
Dew Point 70 °F
Humidity 57%
Rainfall 0.00 in
Snow Depth Not available.
6:31 AM 6:30 PM
Waning Crescent, 12% visible
METAR LLBG 271220Z 30011KT 9999 FEW050 28/15 Q1014 NOSIG
Pressure 29.95 in
Visibility 6.2 miles
Clouds Few 5000 ft
Heat Index 92 °F
Dew Point 70 °F
Humidity 57%
Rainfall 0.00 in
Snow Depth Not available.
6:31 AM 6:30 PM
Waning Crescent, 12% visible
METAR LLBG 271220Z 30011KT 9999 FEW050 28/15 Q1014 NOSIG

10-Day Weather Forecast

No radar image for this location.
×

Almanac

Astronomy

Sep. 27, 2016 Rise Set
Actual Time
Civil Twilight
Nautical Twilight
Astronomical Twilight
Moon
Length of Visible Light
Length of Day
Tomorrow will be .
, % of the Moon is Illuminated

Today's Extremes

Country Highs Country Lows

Community

WunderPhotos

Upload Photos

1,942,069 photos uploaded!

WunderBlog® & News

Nearby

Air Quality

  Air Quality AQ Index Pollutant
Not available.

Snow Depth

Station Depth Elevation

Earthquake Activity

City Distance Mag. Time & Date
Minimum magnitude displayed is 2.5.

Coastal Water Temperatures

Place Temperature

Stations

Nearby Weather Stations

Station Location Temp. Windchill Dew Point Humidity Wind Precip. Elev Updated Type